• Join FlightAware (Why Join?)
  • Login
  • US Flag 
04:58AM EDT


 

Airport Tracker/Info


-or-


 

Live Flight TrackerFlight Track Log ✈ DAL6241 ✈ 07-May-2013 ✈ KILM - KLGA

Flight Track Log - Related Links

Times and Time Zones

All times are in EDT time to prevent confusion due to time zone crossing. See the DAL6241 flight status page for this flight to view local times or setup timezone preferences in your user account.

Time Position Orientation Groundspeed Altitude Reporting Facility
EDT Latitude Longitude Course Direction KTS MPH feet Rate Location/Type
06:15AM 34.2550 -77.9464 12° North 178 205 2,500  Level Washington Center
06:16AM 34.3114 -77.9503 357° North 218 251 5,100 2,580 Climbing Washington Center
06:17AM 34.3867 -77.9400 North 240 276 7,700 2,700 Climbing Washington Center
06:18AM 34.4725 -77.9272 North 277 319 10,500 2,100 Climbing Washington Center
06:19AM 34.5686 -77.9125 North 317 365 12,000 1,560 Climbing Washington Center
06:20AM 34.6775 -77.8978 North 361 415 13,700 1,980 Climbing Washington Center
06:21AM 34.9249 -77.8063 12° North  Level FlightAware Approximate
06:21AM 34.7967 -77.8783 North 398 458 15,900  Level Washington Center
06:22AM 34.9014 -77.8611 North 412 474 18,000 2,160 Climbing Washington Center
06:23AM 35.0206 -77.8442 North 428 493 20,300 2,280 Climbing Washington Center
06:24AM 35.1419 -77.8297 North 428 493 22,600 2,040 Climbing Washington Center
06:25AM 35.2675 -77.8078 North 434 499 24,400 1,560 Climbing Washington Center
06:26AM 35.3931 -77.7908 North 446 513 25,800 1,380 Climbing Washington Center
06:27AM 35.5250 -77.7689 North 456 525 27,200 1,380 Climbing Washington Center
06:28AM 35.6531 -77.7264 15° North 469 540 28,600 1,380 Climbing Washington Center
06:29AM 35.7811 -77.6786 17° North 474 545 30,000 1,200 Climbing Washington Center
06:30AM 35.9111 -77.6333 16° North 474 545 31,000 960 Climbing Washington Center
06:31AM 36.0436 -77.5856 16° North 480 552 32,000 960 Climbing Washington Center
06:32AM 36.1758 -77.5400 16° North 480 552 33,000 480 Climbing Washington Center
06:33AM 36.3122 -77.4892 17° North 485 558 33,000  Level Washington Center
06:34AM 36.4400 -77.4431 16° North 486 559 33,000  Level Washington Center
06:35AM 36.5681 -77.3969 16° North 481 554 33,000  Level Washington Center
06:36AM 36.6939 -77.3508 16° North 476 548 33,000  Level Washington Center
06:37AM 36.8178 -77.3069 16° North 471 542 33,000  Level Washington Center
06:38AM 36.9436 -77.2578 17° North 465 535 33,000  Level Washington Center
06:39AM 37.0672 -77.2136 16° North 465 535 33,000  Level Washington Center
06:40AM 37.1889 -77.1692 16° North 460 529 33,000  Level Washington Center
06:41AM 37.3250 -77.1144 18° North 460 529 33,000  Level Washington Center
06:42AM 37.4219 -77.0431 30° Northeast 449 517 33,000  Level Washington Center
06:43AM 37.5461 -76.9564 29° Northeast 449 517 33,000  Level Washington Center
06:44AM 37.6553 -76.8744 31° Northeast 454 522 33,000  Level Washington Center
06:45AM 37.7667 -76.7922 30° Northeast 454 522 33,000  Level Washington Center
06:46AM 37.8719 -76.7125 31° Northeast 467 537 33,000  Level Washington Center
06:47AM 37.9831 -76.6297 30° Northeast 467 537 33,000  Level Washington Center
06:48AM 38.0964 -76.5442 31° Northeast 467 537 33,000  Level Washington Center
06:49AM 38.2075 -76.4583 31° Northeast 467 537 33,000  Level Washington Center
06:50AM 38.3144 -76.3750 31° Northeast 461 531 33,000  Level Washington Center
06:51AM 38.4194 -76.2781 36° Northeast 453 521 33,000 -180 Level Washington Center
06:52AM 38.5283 -76.1783 36° Northeast 460 529 32,700 -960 Descending Washington Center
06:53AM 38.6475 -76.0700 35° Northeast 476 548 31,100 -1,500 Descending Washington Center
06:54AM 38.7522 -75.9722 36° Northeast 470 541 29,700 -1,440 Descending Washington Center
06:55AM 38.8525 -75.8769 36° Northeast 460 529 28,300 -1,380 Descending Washington Center
06:56AM 38.9506 -75.7864 36° Northeast 453 521 27,000 -660 Descending Washington Center
06:57AM 39.0467 -75.6958 36° Northeast 436 502 27,000 -480 Level Washington Center
06:58AM 39.1406 -75.6050 37° Northeast 429 494 26,100 -1,200 Descending Washington Center
06:59AM 39.2364 -75.5139 36° Northeast 424 488 24,700 -1,440 Descending Washington Center
07:00AM 39.3322 -75.4278 35° Northeast 424 488 23,200 -1,560 Descending Washington Center
07:01AM 39.4258 -75.3472 34° Northeast 417 480 21,600 -1,680 Descending Washington Center
07:02AM 39.5131 -75.2686 35° Northeast 398 458 19,900 -1,680 Descending Washington Center
07:03AM 39.5961 -75.1903 36° Northeast 384 442 18,300 -1,440 Descending Washington Center
07:04AM 39.6814 -75.1117 35° Northeast 378 435 17,100 -1,320 Descending Washington Center
07:05AM 39.7561 -75.0464 34° Northeast 372 428 15,700 -1,440 Descending Washington Center
07:06AM 39.8453 -74.9672 34° Northeast 361 415 14,200 -1,320 Descending Washington Center
07:07AM 39.9158 -74.9044 34° Northeast 345 397 13,100 -1,200 Descending Washington Center
07:08AM 39.9500 -74.8500 51° Northeast 325 374 12,400 -1,140 Descending New York TRACON
07:09AM 40.0167 -74.7667 44° Northeast 305 351 11,400 -1,020 Descending New York TRACON
07:10AM 40.0667 -74.6833 52° Northeast 291 335 10,400 -720 Descending New York TRACON
07:11AM 40.1167 -74.6167 46° Northeast 290 334 10,000 -240 Descending New York TRACON
07:12AM 40.1833 -74.5333 44° Northeast 287 330 10,000  Level New York TRACON
07:13AM 40.2333 -74.4667 45° Northeast 288 331 10,000 -480 Level New York TRACON
07:14AM 40.2833 -74.4000 45° Northeast 284 327 9,100 -1,020 Descending New York TRACON
07:15AM 40.3333 -74.3167 52° Northeast 283 326 8,000 -1,080 Descending New York TRACON
07:16AM 40.4000 -74.2500 37° Northeast 277 319 7,000 -540 Descending New York TRACON
07:17AM 40.4500 -74.1833 45° Northeast 281 323 7,000  Level New York TRACON
07:18AM 40.5000 -74.1167 45° Northeast 270 311 7,000 -780 Level New York TRACON
07:19AM 40.5667 -74.0500 37° Northeast 267 307 5,500 -1,800 Descending New York TRACON
07:20AM 40.6333 -74.0000 30° Northeast 250 288 3,500 -1,800 Descending New York TRACON
07:21AM 40.6833 -73.9667 27° Northeast 234 269 1,900 -1,140 Descending New York TRACON
07:22AM 40.7167 -73.9167 49° Northeast 146 168 1,300 -660 Descending New York TRACON
07:23AM 40.7500 -73.9000 21° North 122 140 600 -720 Descending New York TRACON
07:25AM 40.7667 -73.8667 30° Northeast  Level FlightAware Approximate